createdAt,value
2023-04-25T00:00:35.610Z,5.30
2023-04-25T00:03:04.400Z,4.27
2023-04-25T00:05:33.007Z,4.43
2023-04-25T00:08:01.595Z,5.47
2023-04-25T00:10:30.560Z,4.80
2023-04-25T00:12:59.799Z,5.47
2023-04-25T00:15:31.061Z,5.30
2023-04-25T00:17:59.691Z,4.80
2023-04-25T00:20:28.226Z,5.17
2023-04-25T00:22:56.826Z,4.43
2023-04-25T00:25:25.545Z,4.60
2023-04-25T00:27:53.991Z,4.50
2023-04-25T00:30:22.452Z,4.60
2023-04-25T00:32:52.114Z,4.63
2023-04-25T00:35:20.870Z,4.90
2023-04-25T00:37:49.320Z,4.17
2023-04-25T00:40:17.704Z,4.63
2023-04-25T00:42:47.264Z,4.30
2023-04-25T00:45:16.716Z,4.63
2023-04-25T00:47:45.731Z,4.30
2023-04-25T00:50:16.581Z,4.57
2023-04-25T00:52:46.489Z,4.60
2023-04-25T00:55:16.912Z,4.30
2023-04-25T00:57:45.685Z,5.17
2023-04-25T01:00:15.825Z,4.77
2023-04-25T01:02:45.831Z,4.97
2023-04-25T01:05:15.863Z,5.20
2023-04-25T01:07:44.448Z,4.20
2023-04-25T01:10:13.160Z,5.10
2023-04-25T01:12:41.680Z,4.30
2023-04-25T01:15:10.385Z,5.43
2023-04-25T01:17:38.905Z,4.47
2023-04-25T01:20:08.623Z,5.20
2023-04-25T01:22:39.046Z,5.67
2023-04-25T01:25:09.128Z,4.80
2023-04-25T01:27:38.273Z,5.47
2023-04-25T01:30:08.838Z,4.33
2023-04-25T01:32:40.144Z,4.30
2023-04-25T01:35:10.683Z,4.27
2023-04-25T01:37:41.094Z,4.47
2023-04-25T01:40:10.810Z,4.73
2023-04-25T01:42:45.428Z,4.60
2023-04-25T01:45:14.532Z,3.63
2023-04-25T01:47:44.938Z,4.23
2023-04-25T01:50:13.671Z,4.20
2023-04-25T01:52:43.406Z,4.03
2023-04-25T01:55:12.272Z,3.83
2023-04-25T01:57:40.821Z,3.90
2023-04-25T02:00:11.150Z,3.80
2023-04-25T02:02:39.811Z,3.33
2023-04-25T02:05:09.138Z,3.17
2023-04-25T02:07:37.675Z,4.30
2023-04-25T02:10:08.387Z,3.50
2023-04-25T02:12:37.648Z,3.53
2023-04-25T02:15:06.950Z,3.30
2023-04-25T02:17:35.621Z,3.40
2023-04-25T02:20:04.267Z,3.70
2023-04-25T02:22:32.614Z,3.57
2023-04-25T02:25:00.973Z,3.57
2023-04-25T02:27:30.523Z,3.70
2023-04-25T02:29:58.946Z,3.83
2023-04-25T02:32:27.982Z,4.17
2023-04-25T02:34:56.451Z,4.00
2023-04-25T02:37:24.912Z,4.70
2023-04-25T02:39:53.261Z,3.93
2023-04-25T02:42:21.558Z,4.60
2023-04-25T02:44:51.225Z,4.93
2023-04-25T02:47:19.750Z,4.53
2023-04-25T02:49:48.653Z,5.07
2023-04-25T02:52:17.084Z,5.00
2023-04-25T02:54:45.462Z,4.03
2023-04-25T02:57:13.843Z,4.27
2023-04-25T02:59:42.212Z,4.20
2023-04-25T03:02:12.253Z,4.47
2023-04-25T03:04:41.168Z,4.67
2023-04-25T03:07:09.801Z,4.10
2023-04-25T03:09:38.250Z,3.93
2023-04-25T03:12:07.062Z,4.00
2023-04-25T03:14:35.685Z,3.50
2023-04-25T03:17:04.175Z,4.43
2023-04-25T03:19:33.923Z,4.37
2023-04-25T03:22:02.380Z,2.97
2023-04-25T03:24:31.084Z,2.63
2023-04-25T03:26:59.540Z,2.97
2023-04-25T03:29:29.109Z,3.27
2023-04-25T03:31:57.555Z,2.93
2023-04-25T03:34:27.020Z,3.50
2023-04-25T03:36:56.713Z,3.30
2023-04-25T03:39:24.976Z,3.23
2023-04-25T03:41:53.322Z,3.13
2023-04-25T03:44:21.915Z,3.47
2023-04-25T03:46:50.197Z,3.40
2023-04-25T03:49:19.606Z,3.63
2023-04-25T03:51:48.260Z,4.13
2023-04-25T03:54:17.877Z,4.17
2023-04-25T03:56:46.377Z,3.83
2023-04-25T03:59:14.884Z,3.80
2023-04-25T04:01:43.290Z,3.80
2023-04-25T04:04:11.939Z,4.30
2023-04-25T04:06:40.991Z,4.80
2023-04-25T04:09:12.106Z,4.03
2023-04-25T04:11:42.248Z,3.90
2023-04-25T04:14:11.691Z,5.50
2023-04-25T04:16:40.097Z,6.00
2023-04-25T04:19:08.459Z,5.13
2023-04-25T04:21:37.209Z,4.37
2023-04-25T04:24:06.622Z,4.73
2023-04-25T04:26:36.146Z,4.70
2023-04-25T04:29:05.682Z,4.23
2023-04-25T04:31:34.166Z,5.17
2023-04-25T04:34:02.883Z,3.77
2023-04-25T04:36:31.333Z,3.23
2023-04-25T04:38:59.746Z,3.50
2023-04-25T04:41:28.189Z,3.70
2023-04-25T04:43:57.015Z,3.53
2023-04-25T04:46:26.933Z,2.80
2023-04-25T04:48:57.398Z,3.30
2023-04-25T04:51:26.640Z,2.60
2023-04-25T04:53:59.252Z,3.00
2023-04-25T04:56:27.721Z,2.63
2023-04-25T04:58:56.095Z,3.00
2023-04-25T05:01:24.859Z,2.90
2023-04-25T05:03:55.194Z,2.70
2023-04-25T05:06:23.973Z,2.50
2023-04-25T05:08:52.392Z,2.67
2023-04-25T05:11:20.807Z,2.80
2023-04-25T05:13:49.755Z,3.10
2023-04-25T05:16:18.369Z,2.60
2023-04-25T05:18:46.823Z,3.33
2023-04-25T05:21:16.691Z,3.17
2023-04-25T05:23:45.306Z,3.33
2023-04-25T05:26:15.579Z,3.30
2023-04-25T05:28:44.347Z,2.90
2023-04-25T05:31:13.156Z,3.70
2023-04-25T05:33:41.584Z,3.17
2023-04-25T05:36:10.466Z,3.07
2023-04-25T05:38:40.098Z,3.10
2023-04-25T05:41:08.468Z,3.10
2023-04-25T05:43:36.877Z,2.10
2023-04-25T05:46:05.627Z,2.77
2023-04-25T05:48:34.138Z,2.53
2023-04-25T05:51:02.506Z,3.20
2023-04-25T05:53:30.982Z,2.23
2023-04-25T05:56:00.859Z,2.60
2023-04-25T05:58:29.327Z,2.40
2023-04-25T06:00:57.714Z,3.20
2023-04-25T06:03:26.201Z,2.30
2023-04-25T06:05:54.841Z,2.13
2023-04-25T06:08:23.640Z,2.67
2023-04-25T06:10:52.269Z,2.33
2023-04-25T06:13:21.952Z,2.80
2023-04-25T06:15:50.549Z,2.20
2023-04-25T06:18:19.177Z,2.60
2023-04-25T06:20:47.613Z,2.00
2023-04-25T06:23:16.057Z,2.40
2023-04-25T06:25:44.425Z,2.40
2023-04-25T06:28:12.909Z,3.10
2023-04-25T06:30:42.640Z,2.73
2023-04-25T06:33:11.234Z,2.67
2023-04-25T06:35:39.860Z,1.80
2023-04-25T06:38:08.227Z,2.87
2023-04-25T06:40:36.976Z,2.40
2023-04-25T06:43:05.674Z,2.27
2023-04-25T06:45:34.044Z,2.37
2023-04-25T06:48:03.670Z,2.30
2023-04-25T06:50:32.547Z,1.70
2023-04-25T06:53:02.600Z,2.20
2023-04-25T06:55:31.498Z,2.43
2023-04-25T06:57:59.810Z,2.47
2023-04-25T07:00:29.564Z,2.10
2023-04-25T07:02:58.141Z,2.47
2023-04-25T07:05:28.411Z,2.20
2023-04-25T07:07:56.747Z,2.20
2023-04-25T07:10:25.244Z,1.80
2023-04-25T07:12:53.566Z,2.45
2023-04-25T07:15:22.080Z,2.13
2023-04-25T07:17:50.701Z,1.90
2023-04-25T07:20:19.277Z,1.90
2023-04-25T07:22:48.924Z,1.70
2023-04-25T07:25:17.367Z,2.17
2023-04-25T07:27:45.729Z,1.60
2023-04-25T07:30:14.754Z,1.83
2023-04-25T07:32:43.172Z,1.60
2023-04-25T07:35:11.853Z,1.90
2023-04-25T07:37:40.350Z,2.10
2023-04-25T07:40:11.673Z,2.00
2023-04-25T07:42:40.769Z,1.90
2023-04-25T07:45:10.301Z,2.07
2023-04-25T07:47:39.532Z,2.20
2023-04-25T07:50:08.876Z,2.03
2023-04-25T07:52:37.304Z,2.10
2023-04-25T07:55:06.227Z,2.13
2023-04-25T07:57:36.835Z,1.57
2023-04-25T08:00:10.008Z,1.53
2023-04-25T08:02:38.614Z,1.70
2023-04-25T08:05:09.330Z,1.87
2023-04-25T08:07:37.890Z,1.73
2023-04-25T08:10:07.818Z,1.30
2023-04-25T08:12:37.452Z,1.87
2023-04-25T08:15:07.662Z,1.73
2023-04-25T08:17:36.571Z,1.70
2023-04-25T08:20:06.725Z,1.73
2023-04-25T08:22:36.038Z,1.73
2023-04-25T08:25:04.689Z,1.90
2023-04-25T08:27:33.124Z,1.90
2023-04-25T08:30:04.124Z,2.10
2023-04-25T08:32:32.564Z,1.97
2023-04-25T08:35:00.975Z,1.40
2023-04-25T08:37:29.404Z,1.63
2023-04-25T08:39:57.955Z,1.60
2023-04-25T08:42:28.968Z,1.40
2023-04-25T08:44:58.383Z,1.40
2023-04-25T08:47:29.892Z,1.90
2023-04-25T08:49:58.794Z,1.87
2023-04-25T08:52:32.442Z,3.20
2023-04-25T08:55:03.025Z,1.93
2023-04-25T08:57:32.505Z,1.83
2023-04-25T09:00:02.273Z,1.53
2023-04-25T09:02:32.446Z,2.40
2023-04-25T09:05:01.410Z,2.27
2023-04-25T09:07:29.902Z,2.40
2023-04-25T09:10:00.528Z,1.90
2023-04-25T09:12:29.469Z,1.30
2023-04-25T09:15:06.387Z,1.30
2023-04-25T09:17:41.275Z,1.50
2023-04-25T09:20:12.424Z,1.77
2023-04-25T09:22:41.288Z,1.50
2023-04-25T09:25:15.527Z,1.60
2023-04-25T09:27:53.203Z,1.47
2023-04-25T09:30:31.795Z,1.80
2023-04-25T09:33:07.590Z,1.53
2023-04-25T09:35:40.385Z,1.57
2023-04-25T09:38:13.305Z,1.40
2023-04-25T09:40:43.870Z,1.33
2023-04-25T09:43:21.987Z,1.73
2023-04-25T09:45:52.872Z,1.17
2023-04-25T09:48:24.134Z,1.23
2023-04-25T09:51:07.208Z,1.40
2023-04-25T09:53:36.361Z,1.30
2023-04-25T09:56:07.758Z,1.53
2023-04-25T09:58:36.928Z,2.10
2023-04-25T10:01:06.993Z,1.63
2023-04-25T10:03:38.172Z,1.50
2023-04-25T10:06:11.376Z,1.10
2023-04-25T10:08:41.935Z,1.37
2023-04-25T10:11:11.084Z,1.63
2023-04-25T10:13:39.533Z,1.70
2023-04-25T10:16:08.170Z,1.53
2023-04-25T10:18:38.621Z,1.50
2023-04-25T10:21:08.357Z,0.87
2023-04-25T10:23:38.969Z,1.53
2023-04-25T10:26:08.749Z,1.73
2023-04-25T10:28:58.547Z,1.77
2023-04-25T10:31:27.419Z,1.57
2023-04-25T10:33:57.629Z,1.37
2023-04-25T10:36:28.198Z,1.20
2023-04-25T10:38:56.626Z,1.33
2023-04-25T10:41:24.996Z,1.53
2023-04-25T10:44:03.151Z,1.63
2023-04-25T10:46:32.716Z,1.27
2023-04-25T10:49:05.059Z,1.43
2023-04-25T10:51:51.015Z,1.70
2023-04-25T10:54:27.092Z,1.60
2023-04-25T10:56:55.677Z,1.57
2023-04-25T10:59:27.644Z,1.70
2023-04-25T11:01:56.732Z,1.80
2023-04-25T11:04:30.723Z,2.00
2023-04-25T11:07:15.713Z,1.47
2023-04-25T11:09:44.052Z,2.00
2023-04-25T11:12:16.527Z,1.53
2023-04-25T11:14:45.093Z,1.70
2023-04-25T11:17:13.654Z,1.67
2023-04-25T11:19:43.280Z,2.10
2023-04-25T11:22:14.023Z,1.80
2023-04-25T11:24:42.936Z,2.10
2023-04-25T11:27:11.648Z,1.80
2023-04-25T11:29:40.485Z,1.80
2023-04-25T11:32:08.877Z,1.73
2023-04-25T11:34:37.430Z,1.83
2023-04-25T11:37:07.715Z,1.80
2023-04-25T11:39:36.383Z,1.40
2023-04-25T11:42:13.525Z,1.80
2023-04-25T11:44:42.952Z,1.50
2023-04-25T11:47:11.390Z,1.37
2023-04-25T11:49:39.836Z,1.57
2023-04-25T11:52:10.744Z,2.20
2023-04-25T11:54:39.370Z,1.43
2023-04-25T11:57:07.816Z,2.00
2023-04-25T11:59:36.344Z,1.83
2023-04-25T12:02:04.992Z,1.58
2023-04-25T12:04:34.448Z,1.87
2023-04-25T12:07:03.610Z,1.30
2023-04-25T12:09:35.391Z,1.57
2023-04-25T12:12:04.836Z,2.03
2023-04-25T12:14:34.610Z,2.13
2023-04-25T12:17:05.009Z,1.50
2023-04-25T12:19:36.969Z,2.13
2023-04-25T12:22:20.593Z,1.30
2023-04-25T12:24:50.407Z,1.57
2023-04-25T12:27:20.307Z,1.70
2023-04-25T12:29:54.329Z,1.33
2023-04-25T12:32:23.021Z,1.40
2023-04-25T12:34:51.403Z,1.63
2023-04-25T12:37:19.887Z,1.97
2023-04-25T12:39:49.531Z,1.37
2023-04-25T12:42:17.925Z,1.63
2023-04-25T12:44:47.401Z,1.77
2023-04-25T12:47:15.993Z,1.50
2023-04-25T12:49:44.732Z,1.40
2023-04-25T12:52:13.220Z,1.60
2023-04-25T12:54:41.643Z,1.43
2023-04-25T12:57:12.450Z,1.53
2023-04-25T12:59:40.965Z,1.73
2023-04-25T13:02:09.346Z,1.60
2023-04-25T13:04:37.911Z,1.83
2023-04-25T13:07:06.351Z,1.67
2023-04-25T13:09:34.850Z,1.90
2023-04-25T13:12:03.312Z,1.47
2023-04-25T13:14:33.053Z,1.50
2023-04-25T13:17:01.706Z,1.80
2023-04-25T13:19:30.314Z,1.43
2023-04-25T13:22:00.012Z,1.60
2023-04-25T13:24:28.466Z,1.50
2023-04-25T13:26:56.964Z,1.83
2023-04-25T13:29:25.799Z,1.30
2023-04-25T13:31:55.983Z,1.53
2023-04-25T13:34:24.879Z,0.93
2023-04-25T13:36:53.313Z,1.73
2023-04-25T13:39:21.986Z,1.63
2023-04-25T13:41:50.675Z,1.97
2023-04-25T13:44:19.052Z,1.77
2023-04-25T13:46:48.029Z,2.00
2023-04-25T13:49:17.997Z,1.60
2023-04-25T13:51:46.406Z,1.70
2023-04-25T13:54:15.099Z,1.33
2023-04-25T13:56:43.739Z,1.60
2023-04-25T13:59:12.591Z,1.27
2023-04-25T14:01:41.302Z,1.57
2023-04-25T14:04:09.833Z,1.83
2023-04-25T14:06:39.508Z,1.67
2023-04-25T14:09:11.178Z,1.83
2023-04-25T14:11:39.606Z,2.13
2023-04-25T14:14:08.015Z,1.73
2023-04-25T14:16:36.855Z,1.70
2023-04-25T14:19:05.398Z,2.23
2023-04-25T14:21:34.454Z,1.70
2023-04-25T14:24:04.229Z,1.10
2023-04-25T14:26:32.685Z,1.90
2023-04-25T14:29:01.140Z,1.60
2023-04-25T14:31:29.859Z,1.43
2023-04-25T14:33:59.593Z,1.63
2023-04-25T14:36:30.034Z,1.70
2023-04-25T14:38:58.446Z,1.90
2023-04-25T14:41:28.662Z,1.60
2023-04-25T14:43:57.902Z,1.90
2023-04-25T14:46:26.638Z,1.90
2023-04-25T14:48:57.102Z,2.17
2023-04-25T14:51:25.509Z,1.90
2023-04-25T14:53:54.302Z,2.00
2023-04-25T14:56:22.766Z,2.43
2023-04-25T14:58:52.459Z,2.40
2023-04-25T15:01:22.945Z,1.40
2023-04-25T15:03:52.412Z,2.10
2023-04-25T15:06:21.137Z,1.53
2023-04-25T15:08:49.554Z,2.17
2023-04-25T15:11:18.004Z,1.70
2023-04-25T15:13:46.380Z,1.90
2023-04-25T15:16:16.281Z,2.07
2023-04-25T15:18:44.722Z,2.30
2023-04-25T15:21:13.110Z,1.60
2023-04-25T15:23:41.568Z,2.17
2023-04-25T15:26:10.111Z,2.63
2023-04-25T15:28:38.970Z,1.93
2023-04-25T15:31:07.859Z,1.53
2023-04-25T15:33:37.676Z,1.80
2023-04-25T15:36:06.596Z,2.10
2023-04-25T15:38:35.048Z,2.10
2023-04-25T15:41:04.821Z,1.87
2023-04-25T15:43:36.793Z,1.93
2023-04-25T15:46:05.296Z,2.37
2023-04-25T15:48:33.997Z,0.67
2023-04-25T15:51:03.774Z,1.77
2023-04-25T15:53:32.240Z,1.80
2023-04-25T15:56:00.800Z,1.90
2023-04-25T15:58:29.179Z,2.00
2023-04-25T16:00:57.768Z,1.70
2023-04-25T16:03:26.254Z,2.03
2023-04-25T16:05:54.928Z,2.10
2023-04-25T16:08:25.662Z,2.03
2023-04-25T16:10:54.061Z,1.90
2023-04-25T16:13:23.034Z,2.33
2023-04-25T16:15:51.596Z,1.70
2023-04-25T16:18:20.501Z,1.90
2023-04-25T16:20:49.026Z,2.03
2023-04-25T16:23:17.429Z,2.63
2023-04-25T16:25:47.110Z,2.00
2023-04-25T16:28:15.817Z,1.93
2023-04-25T16:30:44.258Z,2.03
2023-04-25T16:33:12.904Z,2.40
2023-04-25T16:35:41.400Z,2.30
2023-04-25T16:38:09.807Z,2.63
2023-04-25T16:40:38.275Z,2.37
2023-04-25T16:43:08.141Z,2.03
2023-04-25T16:45:36.714Z,1.70
2023-04-25T16:48:05.409Z,1.70
2023-04-25T16:50:34.036Z,1.97
2023-04-25T16:53:02.519Z,1.90
2023-04-25T16:55:31.529Z,1.70
2023-04-25T16:58:00.171Z,1.63
2023-04-25T17:00:30.035Z,1.77
2023-04-25T17:02:58.794Z,2.13
2023-04-25T17:05:27.464Z,1.97
2023-04-25T17:07:56.852Z,1.80
2023-04-25T17:10:25.227Z,2.20
2023-04-25T17:12:53.708Z,1.93
2023-04-25T17:15:22.423Z,2.60
2023-04-25T17:17:52.137Z,2.23
2023-04-25T17:20:20.551Z,2.20
2023-04-25T17:22:49.576Z,2.13
2023-04-25T17:25:18.009Z,1.77
2023-04-25T17:27:46.510Z,2.10
2023-04-25T17:30:16.133Z,1.97
2023-04-25T17:32:44.487Z,2.30
2023-04-25T17:35:15.694Z,2.17
2023-04-25T17:37:45.329Z,2.30
2023-04-25T17:40:14.175Z,2.57
2023-04-25T17:42:43.275Z,2.00
2023-04-25T17:45:13.067Z,2.30
2023-04-25T17:47:41.897Z,2.73
2023-04-25T17:50:12.724Z,2.40
2023-04-25T17:52:44.834Z,2.10
2023-04-25T17:55:13.384Z,1.87
2023-04-25T17:57:41.918Z,1.93
2023-04-25T18:00:12.291Z,2.00
2023-04-25T18:02:40.853Z,2.40
2023-04-25T18:05:10.912Z,2.20
2023-04-25T18:07:41.725Z,2.20
2023-04-25T18:10:12.059Z,2.13
2023-04-25T18:12:40.635Z,2.10
2023-04-25T18:15:10.417Z,2.23
2023-04-25T18:17:40.853Z,2.20
2023-04-25T18:20:14.960Z,2.30
2023-04-25T18:22:45.511Z,2.23
2023-04-25T18:25:14.583Z,1.67
2023-04-25T18:27:43.447Z,2.00
2023-04-25T18:30:12.509Z,2.20
2023-04-25T18:32:41.123Z,2.33
2023-04-25T18:35:10.298Z,2.60
2023-04-25T18:37:40.918Z,2.60
2023-04-25T18:40:14.262Z,2.27
2023-04-25T18:42:43.220Z,2.53
2023-04-25T18:45:12.494Z,2.00
2023-04-25T18:47:41.043Z,2.10
2023-04-25T18:50:10.328Z,2.63
2023-04-25T18:52:39.043Z,2.10
2023-04-25T18:55:08.411Z,2.20
2023-04-25T18:57:38.432Z,2.83
2023-04-25T19:00:08.140Z,2.23
2023-04-25T19:02:38.071Z,2.00
2023-04-25T19:05:10.136Z,2.50
2023-04-25T19:07:38.778Z,2.13
2023-04-25T19:10:08.593Z,3.03
2023-04-25T19:12:38.281Z,2.93
2023-04-25T19:15:09.750Z,3.50
2023-04-25T19:17:38.512Z,2.53
2023-04-25T19:20:08.240Z,2.90
2023-04-25T19:22:36.729Z,3.10
2023-04-25T19:25:10.787Z,3.20
2023-04-25T19:27:41.011Z,3.00
2023-04-25T19:30:11.021Z,2.37
2023-04-25T19:32:39.984Z,2.60
2023-04-25T19:35:11.451Z,2.53
2023-04-25T19:37:46.086Z,3.07
2023-04-25T19:40:16.060Z,2.67
2023-04-25T19:42:46.445Z,3.00
2023-04-25T19:45:14.878Z,3.73
2023-04-25T19:47:43.991Z,3.20
2023-04-25T19:50:13.162Z,3.30
2023-04-25T19:52:41.758Z,3.10
2023-04-25T19:55:11.171Z,3.50
2023-04-25T19:57:39.742Z,2.77
2023-04-25T20:00:12.977Z,2.50
2023-04-25T20:02:43.419Z,2.80
2023-04-25T20:05:13.295Z,2.97
2023-04-25T20:07:41.979Z,2.77
2023-04-25T20:10:13.721Z,2.30
2023-04-25T20:12:42.098Z,2.93
2023-04-25T20:15:12.634Z,2.33
2023-04-25T20:17:41.769Z,3.00
2023-04-25T20:20:11.108Z,2.90
2023-04-25T20:22:40.737Z,3.13
2023-04-25T20:25:10.773Z,3.23
2023-04-25T20:27:39.526Z,2.83
2023-04-25T20:30:08.904Z,3.10
2023-04-25T20:32:38.923Z,3.30
2023-04-25T20:35:10.103Z,2.87
2023-04-25T20:37:38.848Z,2.63
2023-04-25T20:40:08.875Z,2.83
2023-04-25T20:42:38.248Z,2.40
2023-04-25T20:45:12.836Z,2.63
2023-04-25T20:47:44.480Z,3.00
2023-04-25T20:50:13.560Z,2.70
2023-04-25T20:52:43.277Z,3.20
2023-04-25T20:55:12.078Z,3.60
2023-04-25T20:57:40.919Z,3.30
2023-04-25T21:00:16.796Z,3.47
2023-04-25T21:02:47.423Z,3.00
2023-04-25T21:05:16.081Z,3.50
2023-04-25T21:07:45.556Z,4.00
2023-04-25T21:10:15.591Z,4.00
2023-04-25T21:12:47.760Z,3.70
2023-04-25T21:15:17.833Z,3.70
2023-04-25T21:17:48.242Z,3.17
2023-04-25T21:20:17.961Z,3.00
2023-04-25T21:22:50.421Z,3.73
2023-04-25T21:25:25.353Z,3.20
2023-04-25T21:27:54.177Z,2.67
2023-04-25T21:30:24.860Z,3.13
2023-04-25T21:32:55.094Z,3.17
2023-04-25T21:35:23.960Z,3.60
2023-04-25T21:37:53.210Z,3.57
2023-04-25T21:40:22.267Z,4.83
2023-04-25T21:42:51.956Z,3.70
2023-04-25T21:45:21.265Z,3.40
2023-04-25T21:47:50.772Z,3.93
2023-04-25T21:50:21.099Z,3.73
2023-04-25T21:52:49.644Z,4.40
2023-04-25T21:55:19.768Z,4.10
2023-04-25T21:57:48.251Z,3.53
2023-04-25T22:00:24.900Z,3.77
2023-04-25T22:02:53.947Z,3.37
2023-04-25T22:05:26.513Z,3.80
2023-04-25T22:07:57.043Z,3.70
2023-04-25T22:10:26.245Z,4.27
2023-04-25T22:12:55.901Z,4.97
2023-04-25T22:15:24.754Z,3.93
2023-04-25T22:17:55.369Z,4.30
2023-04-25T22:20:26.458Z,3.93
2023-04-25T22:22:55.801Z,4.50
2023-04-25T22:25:24.334Z,5.13
2023-04-25T22:27:52.984Z,4.13
2023-04-25T22:30:21.808Z,5.07
2023-04-25T22:32:50.259Z,5.37
2023-04-25T22:35:19.321Z,4.47
2023-04-25T22:37:49.124Z,5.23
2023-04-25T22:40:18.147Z,4.37
2023-04-25T22:42:46.764Z,5.03
2023-04-25T22:45:16.196Z,4.83
2023-04-25T22:47:44.725Z,4.90
2023-04-25T22:50:17.156Z,5.20
2023-04-25T22:52:46.058Z,4.97
2023-04-25T22:55:15.979Z,5.70
2023-04-25T22:57:44.373Z,5.33
2023-04-25T23:00:19.188Z,6.17
2023-04-25T23:02:48.018Z,6.93
2023-04-25T23:05:17.044Z,6.60
2023-04-25T23:07:45.956Z,6.03
2023-04-25T23:10:15.556Z,5.90
2023-04-25T23:12:44.116Z,6.17
2023-04-25T23:15:13.496Z,6.30
2023-04-25T23:17:42.487Z,6.47
2023-04-25T23:20:12.178Z,6.27
2023-04-25T23:22:40.829Z,5.80
2023-04-25T23:25:10.420Z,5.43
2023-04-25T23:27:40.120Z,5.80
2023-04-25T23:30:10.395Z,6.83
2023-04-25T23:32:39.122Z,5.93
2023-04-25T23:35:08.384Z,6.60
2023-04-25T23:37:37.417Z,6.33
2023-04-25T23:40:10.109Z,5.97
2023-04-25T23:42:40.896Z,6.57
2023-04-25T23:45:10.497Z,6.20
2023-04-25T23:47:39.096Z,6.90
2023-04-25T23:50:08.595Z,6.63
2023-04-25T23:52:38.007Z,6.37
2023-04-25T23:55:07.141Z,5.90
2023-04-25T23:57:35.562Z,6.50
